2009 NIDA (2009325N06148)


On this page: IBTrACS data - Map and Plots - Positions - Intensities - Original source data

Summary

Start Nov 21
End Dec 3
Basin WP
LMI 155 kt
Sources jtwc_wp
tokyo
cma
hko
In WMO? Yes
Previous storm 2009 TD1123 (WP)
Previous in basin 2009 TD1123 (WP)
Concurrent storms 2009 TD1123 (WP)
2009 NIDA (WP)
2009 TD1124 (WP)
2009 TWENTYEIGH (WP)
Next in basin 2009 TD1124 (WP)
Next storm 2009 TD1124 (WP)

top of page IBTrACS Data: File Access

No storm imagery available

top of page Plots:

Map of storm track will not appear if FTP is down
Time series of cyclone Maximum Sustained Wind will not appear if FTP is down
Time series of cyclone Minimum Central Pressure will not appear if FTP is down

top of page Track Data:Position

jtwc_wp tokyo cma hko
Date Lat Lon Lat Lon Lat Lon Lat Lon
2009-11-21 06:00:00 5.6 147.9
2009-11-21 12:00:00 5.8 148.3
2009-11-21 18:00:00 6.1 148.6 6.7 148.3
2009-11-22 00:00:00 6.5 148.8 6.9 148.2 6.5 148.6 6.9 148.2
2009-11-22 06:00:00 7.0 148.8 7.2 148.1 7.0 148.2 7.2 148.1
2009-11-22 12:00:00 7.4 148.7 7.4 148.0 7.3 148.0 7.4 148.0
2009-11-22 18:00:00 7.8 148.5 7.6 148.0 7.5 147.9 7.6 148.0
2009-11-23 00:00:00 8.2 148.2 7.8 148.0 7.9 148.0 7.8 148.0
2009-11-23 06:00:00 8.5 147.8 8.2 147.6 8.3 147.8 8.2 147.6
2009-11-23 12:00:00 8.6 147.1 8.5 147.1 8.8 147.0 8.5 147.1
2009-11-23 18:00:00 8.6 146.6 8.7 146.3 8.9 146.3 8.7 146.3
2009-11-24 00:00:00 8.6 146.1 8.8 145.8 8.9 145.8 8.8 145.8
2009-11-24 06:00:00 8.8 145.7 8.9 145.5 8.9 145.5 8.9 145.5
2009-11-24 12:00:00 9.4 145.1 9.3 145.0 9.2 145.0 9.3 145.0
2009-11-24 18:00:00 10.0 144.4 9.9 144.3 9.7 144.3 9.9 144.2
2009-11-25 00:00:00 10.7 143.8 10.7 143.8 10.7 143.8 10.6 143.8
2009-11-25 06:00:00 11.6 143.0 11.6 143.0 11.6 143.0 11.7 143.0
2009-11-25 12:00:00 12.5 142.3 12.6 142.2 12.6 142.2 12.6 142.1
2009-11-25 18:00:00 13.6 141.5 13.6 141.4 13.6 141.4 13.6 141.4
2009-11-26 00:00:00 14.6 140.7 14.5 140.7 14.5 140.7 14.6 140.7
2009-11-26 06:00:00 15.2 140.0 15.2 140.0 15.2 140.0 15.2 140.0
2009-11-26 12:00:00 15.8 139.7 15.8 139.7 15.8 139.7 15.8 139.7
2009-11-26 18:00:00 16.3 139.3 16.3 139.3 16.3 139.3 16.3 139.3
2009-11-27 00:00:00 16.9 139.2 16.9 139.2 16.9 139.2 16.8 139.1
2009-11-27 06:00:00 17.8 139.1 17.8 139.2 17.8 139.2 17.8 139.2
jtwc_wp tokyo cma hko
2009-11-27 12:00:00 18.3 139.0 18.3 139.0 18.3 139.0 18.3 138.9
2009-11-27 18:00:00 18.7 139.0 18.7 139.0 18.7 139.0 18.7 138.9
2009-11-28 00:00:00 18.9 139.1 19.0 139.0 19.0 139.0 19.0 139.1
2009-11-28 06:00:00 19.0 139.2 19.1 139.2 19.1 139.2 19.1 139.1
2009-11-28 12:00:00 19.0 139.4 19.1 139.3 19.1 139.3 19.1 139.2
2009-11-28 18:00:00 19.1 139.5 19.1 139.5 19.2 139.4 19.2 139.3
2009-11-29 00:00:00 19.2 139.4 19.3 139.4 19.3 139.4 19.3 139.3
2009-11-29 06:00:00 19.3 139.4 19.5 139.4 19.4 139.4 19.4 139.3
2009-11-29 12:00:00 19.3 139.3 19.5 139.2 19.5 139.3 19.5 139.2
2009-11-29 18:00:00 19.4 139.3 19.6 139.5 19.5 139.3 19.6 139.3
2009-11-30 00:00:00 19.5 139.3 19.6 139.3 19.6 139.3 19.6 139.4
2009-11-30 06:00:00 19.7 139.2 19.8 139.1 19.7 139.1 19.7 139.2
2009-11-30 12:00:00 20.0 138.8 20.0 138.8 19.9 138.8 19.9 139.0
2009-11-30 18:00:00 20.0 138.4 20.1 138.5 20.0 138.4 20.0 138.7
2009-12-01 00:00:00 20.3 138.1 20.3 138.2 20.3 138.1 20.3 138.3
2009-12-01 06:00:00 20.5 137.7 20.6 137.7 20.5 137.8 20.5 137.8
2009-12-01 12:00:00 20.6 137.2 20.6 137.3 20.7 137.6 20.6 137.3
2009-12-01 18:00:00 21.0 136.8 20.7 136.9 21.0 137.3 20.7 136.9
2009-12-02 00:00:00 21.0 136.2 20.8 136.1 21.2 136.8 20.9 136.2
2009-12-02 06:00:00 20.8 135.6 20.9 135.6 21.0 135.8 21.0 135.8
2009-12-02 12:00:00 21.2 135.0 21.1 135.1 21.1 134.9 21.2 135.0
2009-12-02 18:00:00 21.4 134.3 21.5 134.6 21.5 134.3 21.5 134.6
2009-12-03 00:00:00 21.7 134.4 21.7 134.2 21.7 134.0 21.7 134.2
2009-12-03 06:00:00 22.1 134.6 22.4 134.5 22.0 134.4
jtwc_wp tokyo cma hko
2009-12-03 12:00:00 22.4 135.2 22.6 135.6

top of pageTrack Data:Intensity

jtwc_wp tokyo cma hko
Date Wind Pres Wind Pres Wind Pres Wind Pres
2009-11-21 06:00:00 15. 1010.
2009-11-21 12:00:00 20. 1006.
2009-11-21 18:00:00 20. 1004. 1002.
2009-11-22 00:00:00 25. 1004. 1004. 25. 1002. 25. 1002.
2009-11-22 06:00:00 30. 1000. 1000. 29. 1002. 25. 1000.
2009-11-22 12:00:00 30. 1000. 1002. 29. 1000. 25. 1002.
2009-11-22 18:00:00 30. 1000. 1002. 29. 1000. 25. 1002.
2009-11-23 00:00:00 30. 1000. 1002. 29. 1000. 25. 1002.
2009-11-23 06:00:00 35. 996. 1002. 29. 1000. 30. 1000.
2009-11-23 12:00:00 45. 989. 35. 1000. 35. 995. 35. 998.
2009-11-23 18:00:00 50. 985. 45. 996. 45. 990. 40. 995.
2009-11-24 00:00:00 55. 982. 50. 992. 49. 985. 45. 990.
2009-11-24 06:00:00 65. 974. 65. 980. 64. 975. 50. 985.
2009-11-24 12:00:00 65. 974. 70. 975. 68. 970. 55. 980.
2009-11-24 18:00:00 80. 963. 80. 960. 78. 960. 60. 975.
2009-11-25 00:00:00 100. 948. 85. 950. 87. 950. 75. 960.
2009-11-25 06:00:00 125. 929. 95. 940. 107. 935. 90. 940.
2009-11-25 12:00:00 155. 907. 105. 925. 126. 910. 105. 925.
2009-11-25 18:00:00 155. 907. 115. 905. 136. 903. 115. 910.
2009-11-26 00:00:00 150. 911. 115. 905. 126. 910. 115. 910.
2009-11-26 06:00:00 145. 914. 110. 905. 117. 920. 110. 915.
2009-11-26 12:00:00 140. 918. 105. 915. 117. 920. 110. 915.
2009-11-26 18:00:00 135. 922. 105. 915. 107. 930. 110. 915.
2009-11-27 00:00:00 130. 926. 100. 925. 107. 930. 105. 920.
2009-11-27 06:00:00 125. 929. 100. 925. 107. 930. 105. 920.
jtwc_wp tokyo cma hko
2009-11-27 12:00:00 135. 922. 100. 925. 107. 930. 100. 930.
2009-11-27 18:00:00 150. 911. 100. 925. 117. 920. 100. 930.
2009-11-28 00:00:00 145. 914. 100. 925. 117. 920. 100. 930.
2009-11-28 06:00:00 135. 922. 100. 925. 107. 930. 100. 930.
2009-11-28 12:00:00 130. 926. 95. 930. 107. 930. 100. 930.
2009-11-28 18:00:00 125. 929. 95. 930. 107. 930. 100. 930.
2009-11-29 00:00:00 125. 929. 85. 945. 107. 930. 95. 935.
2009-11-29 06:00:00 120. 933. 85. 945. 97. 940. 95. 935.
2009-11-29 12:00:00 115. 937. 85. 945. 97. 940. 95. 935.
2009-11-29 18:00:00 105. 944. 85. 945. 97. 940. 95. 935.
2009-11-30 00:00:00 100. 948. 85. 945. 87. 950. 90. 945.
2009-11-30 06:00:00 100. 948. 85. 945. 87. 950. 85. 950.
2009-11-30 12:00:00 90. 956. 80. 955. 78. 960. 80. 955.
2009-11-30 18:00:00 90. 956. 80. 955. 74. 965. 80. 955.
2009-12-01 00:00:00 80. 963. 80. 955. 68. 970. 75. 960.
2009-12-01 06:00:00 75. 967. 70. 965. 64. 975. 70. 965.
2009-12-01 12:00:00 70. 970. 65. 970. 58. 980. 65. 970.
2009-12-01 18:00:00 65. 974. 60. 980. 54. 985. 60. 975.
2009-12-02 00:00:00 65. 974. 60. 980. 54. 985. 60. 975.
2009-12-02 06:00:00 55. 982. 50. 985. 49. 990. 50. 985.
2009-12-02 12:00:00 45. 989. 45. 990. 39. 995. 45. 990.
2009-12-02 18:00:00 35. 996. 40. 994. 35. 995. 40. 995.
2009-12-03 00:00:00 25. 1004. 1000. 29. 1000. 30. 1000.
2009-12-03 06:00:00 15. 1010. 1002. 25. 1002.
jtwc_wp tokyo cma hko
2009-12-03 12:00:00 15. 1010. 1002.

top of page Links to source data

Source Source file Format
jtwc_wp bwp262009.txt ATCF
tokyo bst_all.txt:Line=58619:NIDA:922 JMA text table
cma CH2009BST.txt:Storm=27:Nida CMA text table
hko tc-besttrack-data.txt:Line=34118:NIDA HKO Text table